Time;durP1;ratioP1;P1;durP2;ratioP2;P2;SDS_P1;SDS_P2;PMS_P1;PMS_P2;Temp;Humidity;BMP_temperature;BMP_pressure;BME280_temperature;BME280_humidity;BME280_pressure;Samples;Min_cycle;Max_cycle;Signal;HPM_P1;HPM_P2
2023/01/09 00:00:28;;;;;;;;;;;;;;;15.29;43.39;98453.09;4484018;32;34077;-87
2023/01/09 00:02:55;;;;;;;;;;;;;;;15.29;43.39;98454.84;4483946;32;35316;-82
2023/01/09 00:05:22;;;;;;;;;;;;;;;15.26;43.16;98460.09;4483948;32;34135;-89
2023/01/09 00:07:49;;;;;;;;;;;;;;;15.21;43.18;98467.16;4477728;32;34061;-82
2023/01/09 00:10:17;;;;;;;;;;;;;;;15.27;43.16;98472.31;4478338;32;33760;-82
2023/01/09 00:12:44;;;;;;;;;;;;;;;14.96;43.63;98470.16;4480902;32;34867;-82
2023/01/09 00:15:11;;;;;;;;;;;;;;;14.95;43.72;98460.63;4477595;32;33692;-82
2023/01/09 00:17:39;;;;;;;;;;;;;;;15.35;42.89;98457.34;4482536;32;33356;-91
2023/01/09 00:20:08;;;;;;;;;;;;;;;15.25;43.16;98443.59;4479604;32;35110;-85
2023/01/09 00:22:36;;;;;;;;;;;;;;;15.02;43.46;98457.03;4484028;32;35319;-82
2023/01/09 00:25:04;;;;;;;;;;;;;;;15.23;42.99;98454.97;4483695;32;34338;-82
2023/01/09 00:27:31;;;;;;;;;;;;;;;15.29;42.94;98449.62;4483234;32;33676;-82
2023/01/09 00:29:59;;;;;;;;;;;;;;;15.36;42.74;98443.41;4468739;32;34462;-83
2023/01/09 00:32:26;;;;;;;;;;;;;;;15.40;42.66;98441.59;4469424;32;34576;-83
2023/01/09 00:34:54;;;;;;;;;;;;;;;15.46;42.52;98438.87;4483234;32;34409;-86
2023/01/09 00:37:21;;;;;;;;;;;;;;;15.41;42.35;98438.94;4483381;32;33593;-82
2023/01/09 00:39:49;;;;;;;;;;;;;;;15.16;42.98;98441.16;4469684;32;34100;-82
2023/01/09 00:42:21;;;;;;;;;;;;;;;15.34;42.67;98432.09;4483386;32;33999;-82
2023/01/09 00:44:52;;;;;;;;;;;;;;;15.30;42.74;98431.31;4468706;32;34319;-82
2023/01/09 00:47:24;;;;;;;;;;;;;;;15.32;42.73;98431.28;4483049;32;33420;-91
2023/01/09 00:49:51;;;;;;;;;;;;;;;14.98;43.58;98442.31;4483927;32;35128;-91
2023/01/09 00:52:18;;;;;;;;;;;;;;;15.15;43.26;98433.31;4483553;32;35162;-82
2023/01/09 00:54:46;;;;;;;;;;;;;;;15.25;43.04;98437.50;4482976;32;35038;-83
2023/01/09 00:57:13;;;;;;;;;;;;;;;15.29;43.09;98426.13;4483039;32;32756;-81
2023/01/09 00:59:40;;;;;;;;;;;;;;;15.25;43.11;98429.66;4468908;32;33661;-82
2023/01/09 01:02:08;;;;;;;;;;;;;;;15.02;43.51;98436.16;4483998;32;33630;-83
2023/01/09 01:07:37;;;;;;;;;;;;;;;15.22;43.26;98422.75;4483018;32;33395;-92
2023/01/09 01:10:05;;;;;;;;;;;;;;;15.21;43.44;98417.56;4483665;32;34896;-92
2023/01/09 01:12:33;;;;;;;;;;;;;;;15.05;43.89;98412.59;4469354;32;34284;-82
2023/01/09 01:15:00;;;;;;;;;;;;;;;15.21;43.44;98404.50;4483064;32;34678;-89
2023/01/09 01:17:27;;;;;;;;;;;;;;;14.43;45.13;98408.34;4483179;32;34880;-82
2023/01/09 01:19:55;;;;;;;;;;;;;;;14.99;44.17;98411.84;4480651;32;33258;-82
2023/01/09 01:22:22;;;;;;;;;;;;;;;14.74;44.77;98414.88;4474126;32;34400;-85
2023/01/09 01:24:49;;;;;;;;;;;;;;;14.62;45.22;98420.25;4483473;32;34531;-83
2023/01/09 01:27:17;;;;;;;;;;;;;;;14.18;46.29;98406.13;4481200;32;34179;-82
2023/01/09 01:29:44;;;;;;;;;;;;;;;14.44;45.92;98410.09;4481998;32;33905;-82
2023/01/09 01:32:11;;;;;;;;;;;;;;;14.10;46.80;98402.75;4483246;32;34393;-87
2023/01/09 01:34:38;;;;;;;;;;;;;;;14.15;47.05;98397.47;4483344;32;34958;-89
2023/01/09 01:37:05;;;;;;;;;;;;;;;14.55;46.31;98385.59;4482464;32;33087;-91
2023/01/09 01:39:33;;;;;;;;;;;;;;;14.42;46.68;98391.84;4482780;32;34313;-83
2023/01/09 01:42:01;;;;;;;;;;;;;;;14.05;47.70;98392.41;4483190;32;34119;-82
2023/01/09 01:44:47;;;;;;;;;;;;;;;14.24;47.45;98390.38;4468943;32;34863;-85
2023/01/09 01:47:15;;;;;;;;;;;;;;;13.54;49.03;98378.28;4482760;32;34134;-81
2023/01/09 01:49:42;;;;;;;;;;;;;;;14.02;48.23;98387.22;4481632;32;34231;-82
2023/01/09 01:52:09;;;;;;;;;;;;;;;14.71;46.57;98370.56;4482895;32;34417;-82
2023/01/09 01:54:37;;;;;;;;;;;;;;;14.87;46.33;98368.56;4469119;32;34168;-82
2023/01/09 01:57:04;;;;;;;;;;;;;;;15.00;46.10;98364.84;4469804;32;33340;-83
2023/01/09 01:59:31;;;;;;;;;;;;;;;15.01;46.07;98366.56;4469809;32;34272;-82
2023/01/09 02:01:59;;;;;;;;;;;;;;;14.75;46.66;98359.19;4484880;32;33764;-89
2023/01/09 02:04:28;;;;;;;;;;;;;;;14.87;46.13;98352.91;4470579;32;33480;-85
2023/01/09 02:06:55;;;;;;;;;;;;;;;14.83;46.30;98356.44;4470300;32;32856;-82
2023/01/09 02:09:24;;;;;;;;;;;;;;;14.83;46.10;98341.66;4470352;32;34226;-82
2023/01/09 02:11:51;;;;;;;;;;;;;;;14.48;46.68;98355.25;4484689;32;34620;-83
2023/01/09 02:14:19;;;;;;;;;;;;;;;13.96;48.56;98350.81;4484659;32;34527;-89
2023/01/09 02:16:52;;;;;;;;;;;;;;;14.76;46.49;98337.41;4470130;32;34154;-89
2023/01/09 02:19:29;;;;;;;;;;;;;;;13.84;48.29;98346.63;4484341;32;34394;-82
2023/01/09 02:22:02;;;;;;;;;;;;;;;14.44;47.61;98337.09;4485018;32;35431;-82
2023/01/09 02:24:29;;;;;;;;;;;;;;;14.86;46.08;98330.31;4484535;32;35046;-94
2023/01/09 02:27:00;;;;;;;;;;;;;;;14.67;46.32;98324.53;4482626;32;33372;-82
2023/01/09 02:29:28;;;;;;;;;;;;;;;14.51;47.20;98323.94;4469256;32;33853;-82
2023/01/09 02:31:59;;;;;;;;;;;;;;;14.95;46.28;98329.28;4478520;32;35086;-83
2023/01/09 02:34:29;;;;;;;;;;;;;;;15.35;45.63;98320.69;4469453;32;35017;-82
2023/01/09 02:37:04;;;;;;;;;;;;;;;15.39;45.51;98319.75;4477888;32;33134;-81
2023/01/09 02:39:41;;;;;;;;;;;;;;;15.39;45.64;98323.19;4470299;32;34985;-92
2023/01/09 02:42:13;;;;;;;;;;;;;;;15.27;46.15;98326.06;4469747;32;33758;-82
2023/01/09 02:44:41;;;;;;;;;;;;;;;15.02;45.77;98316.06;4470148;32;35198;-82
2023/01/09 02:47:15;;;;;;;;;;;;;;;15.15;45.82;98308.84;4484172;32;33436;-86
2023/01/09 02:49:45;;;;;;;;;;;;;;;15.45;45.37;98307.38;4484321;32;34982;-82
2023/01/09 02:52:12;;;;;;;;;;;;;;;15.42;45.58;98309.19;4470336;32;35241;-88
2023/01/09 02:55:18;;;;;;;;;;;;;;;15.35;45.56;98308.50;4483955;32;35097;-90
2023/01/09 02:57:48;;;;;;;;;;;;;;;15.43;45.74;98296.13;4404311;32;32854;-82
2023/01/09 03:00:34;;;;;;;;;;;;;;;14.53;47.73;98296.06;4404282;32;33384;-84
2023/01/09 03:03:06;;;;;;;;;;;;;;;15.14;46.12;98294.09;4440759;32;34739;-93
2023/01/09 03:05:34;;;;;;;;;;;;;;;15.14;46.24;98277.56;4484041;32;34651;-84
2023/01/09 03:08:02;;;;;;;;;;;;;;;14.64;46.63;98277.63;4483360;32;33726;-90
2023/01/09 03:10:49;;;;;;;;;;;;;;;14.58;47.21;98286.44;4469631;32;34093;-89
2023/01/09 03:13:17;;;;;;;;;;;;;;;14.83;46.40;98278.16;4483995;32;34953;-82
2023/01/09 03:15:45;;;;;;;;;;;;;;;14.28;47.17;98279.06;4483763;32;34466;-91
2023/01/09 03:18:12;;;;;;;;;;;;;;;13.99;48.16;98283.03;4469713;32;33581;-82
2023/01/09 03:20:40;;;;;;;;;;;;;;;14.91;46.57;98278.87;4484312;32;34062;-81
2023/01/09 03:23:07;;;;;;;;;;;;;;;14.84;46.31;98269.44;4484011;32;34457;-86
2023/01/09 03:25:34;;;;;;;;;;;;;;;14.44;46.66;98275.34;4469475;32;34201;-82
2023/01/09 03:28:04;;;;;;;;;;;;;;;14.46;47.35;98278.78;4475730;32;33023;-93
2023/01/09 03:30:31;;;;;;;;;;;;;;;14.39;47.42;98276.28;4469051;32;34986;-83
2023/01/09 03:32:59;;;;;;;;;;;;;;;13.53;48.97;98277.63;4469044;32;35459;-82
2023/01/09 03:35:26;;;;;;;;;;;;;;;14.78;46.77;98274.78;4484172;32;35076;-82
2023/01/09 03:37:53;;;;;;;;;;;;;;;14.53;46.67;98264.78;4466566;32;34452;-87
2023/01/09 03:40:20;;;;;;;;;;;;;;;12.73;51.06;98272.41;4479959;32;34521;-82
2023/01/09 03:42:48;;;;;;;;;;;;;;;13.25;49.85;98275.34;4483564;32;33644;-82
2023/01/09 03:45:18;;;;;;;;;;;;;;;14.28;47.80;98269.53;4484357;32;33494;-81
2023/01/09 03:47:46;;;;;;;;;;;;;;;13.69;48.65;98262.63;4483401;32;33316;-81
2023/01/09 03:50:13;;;;;;;;;;;;;;;14.49;46.91;98252.69;4483994;32;33571;-81
2023/01/09 03:52:41;;;;;;;;;;;;;;;13.66;48.52;98257.47;4483415;32;34062;-82
2023/01/09 03:55:08;;;;;;;;;;;;;;;14.10;47.47;98264.63;4483954;32;34235;-82
2023/01/09 03:57:35;;;;;;;;;;;;;;;14.81;46.07;98256.44;4484009;32;33669;-90
2023/01/09 04:00:03;;;;;;;;;;;;;;;14.82;46.58;98263.41;4469486;32;34131;-81
2023/01/09 04:02:38;;;;;;;;;;;;;;;14.25;47.46;98259.16;4482625;32;35115;-82
2023/01/09 04:05:05;;;;;;;;;;;;;;;14.96;45.75;98260.50;4483317;32;34090;-81
2023/01/09 04:07:33;;;;;;;;;;;;;;;14.78;46.19;98253.91;4483371;32;33339;-82
2023/01/09 04:10:00;;;;;;;;;;;;;;;14.51;46.41;98245.72;4483471;32;34991;-82
2023/01/09 04:12:27;;;;;;;;;;;;;;;13.67;48.71;98260.03;4483407;32;34435;-92
2023/01/09 04:14:54;;;;;;;;;;;;;;;13.27;49.36;98252.78;4483053;32;34178;-82
2023/01/09 04:17:21;;;;;;;;;;;;;;;14.04;47.38;98249.91;4483546;32;33237;-82
2023/01/09 04:19:49;;;;;;;;;;;;;;;14.00;47.94;98258.69;4472368;32;34321;-82
2023/01/09 04:22:16;;;;;;;;;;;;;;;13.17;49.55;98263.28;4483095;32;34316;-81
2023/01/09 04:24:44;;;;;;;;;;;;;;;13.56;48.75;98268.00;4483580;32;34053;-82
2023/01/09 04:27:11;;;;;;;;;;;;;;;13.65;48.71;98266.16;4483258;32;34131;-81
2023/01/09 04:29:38;;;;;;;;;;;;;;;13.48;49.22;98272.44;4482540;32;34181;-82
2023/01/09 04:32:06;;;;;;;;;;;;;;;13.12;50.26;98263.34;4483307;32;34295;-82
2023/01/09 04:34:33;;;;;;;;;;;;;;;13.65;49.01;98274.84;4482651;32;34449;-82
2023/01/09 04:37:00;;;;;;;;;;;;;;;13.09;50.45;98261.63;4483273;32;33651;-82
2023/01/09 04:39:27;;;;;;;;;;;;;;;14.03;48.14;98263.84;4481026;32;34533;-82
2023/01/09 04:41:55;;;;;;;;;;;;;;;13.58;50.02;98275.78;4478715;32;35120;-90
2023/01/09 04:44:25;;;;;;;;;;;;;;;14.17;48.49;98263.63;4480057;32;33651;-82
2023/01/09 04:46:52;;;;;;;;;;;;;;;14.65;46.76;98252.41;4469208;32;35985;-82
2023/01/09 04:49:20;;;;;;;;;;;;;;;14.72;46.49;98248.81;4482297;32;34364;-89
2023/01/09 04:51:47;;;;;;;;;;;;;;;14.62;47.22;98249.84;4482265;32;34487;-90
2023/01/09 04:54:14;;;;;;;;;;;;;;;13.86;47.96;98258.03;4482527;32;34113;-82
2023/01/09 04:56:42;;;;;;;;;;;;;;;13.81;48.51;98255.47;4482377;32;34248;-81
2023/01/09 04:59:09;;;;;;;;;;;;;;;14.20;47.83;98252.28;4482381;32;34927;-91
2023/01/09 05:01:36;;;;;;;;;;;;;;;13.70;48.76;98253.94;4467150;32;33898;-81
2023/01/09 05:04:04;;;;;;;;;;;;;;;13.21;49.96;98254.53;4483556;32;33928;-81
2023/01/09 05:06:33;;;;;;;;;;;;;;;12.79;51.10;98261.97;4483559;32;32710;-82
2023/01/09 05:09:00;;;;;;;;;;;;;;;12.26;52.82;98263.34;4482513;32;33932;-84
2023/01/09 05:11:27;;;;;;;;;;;;;;;12.76;51.43;98256.78;4481962;32;35213;-89
2023/01/09 05:13:54;;;;;;;;;;;;;;;12.82;51.31;98248.94;4483215;32;34090;-81
2023/01/09 05:16:22;;;;;;;;;;;;;;;12.04;53.41;98250.50;4482486;32;33287;-88
2023/01/09 05:18:55;;;;;;;;;;;;;;;11.66;54.52;98254.22;4481001;32;34098;-86
2023/01/09 05:21:22;;;;;;;;;;;;;;;11.61;54.73;98250.78;4480661;32;34841;-84
2023/01/09 05:23:50;;;;;;;;;;;;;;;12.08;53.50;98243.56;4479614;32;34241;-81
2023/01/09 05:26:22;;;;;;;;;;;;;;;11.93;53.81;98244.53;4479883;32;33402;-81
2023/01/09 05:28:50;;;;;;;;;;;;;;;12.11;53.53;98235.75;4479702;31;33768;-82
2023/01/09 05:31:19;;;;;;;;;;;;;;;12.31;52.55;98238.16;4480389;31;34448;-82
2023/01/09 05:33:48;;;;;;;;;;;;;;;11.63;55.00;98251.66;4463157;32;32964;-86
2023/01/09 05:36:16;;;;;;;;;;;;;;;11.88;53.91;98251.50;4464209;32;34241;-84
2023/01/09 05:38:43;;;;;;;;;;;;;;;11.35;55.48;98247.47;4480671;32;34864;-81
2023/01/09 05:41:10;;;;;;;;;;;;;;;12.18;53.25;98260.81;4477293;31;35216;-88
2023/01/09 05:43:38;;;;;;;;;;;;;;;12.53;52.21;98263.09;4474045;31;35009;-81
2023/01/09 05:46:05;;;;;;;;;;;;;;;12.26;52.43;98264.19;4481502;32;31986;-90
2023/01/09 05:48:32;;;;;;;;;;;;;;;12.45;52.07;98259.69;4480894;32;34005;-89
2023/01/09 05:50:59;;;;;;;;;;;;;;;12.84;51.57;98254.97;4476984;31;34127;-84
2023/01/09 05:53:27;;;;;;;;;;;;;;;11.90;53.34;98257.56;4478764;31;35171;-82
2023/01/09 05:55:54;;;;;;;;;;;;;;;11.99;53.38;98256.63;4477822;31;33178;-82
2023/01/09 05:58:21;;;;;;;;;;;;;;;11.31;55.61;98246.63;4477771;31;34358;-81
2023/01/09 06:00:48;;;;;;;;;;;;;;;11.56;54.66;98247.37;4476532;31;35223;-82
2023/01/09 06:03:16;;;;;;;;;;;;;;;12.30;52.86;98246.84;4482167;32;32827;-82
2023/01/09 06:05:43;;;;;;;;;;;;;;;12.49;52.13;98245.78;4482268;32;34312;-81
2023/01/09 06:08:10;;;;;;;;;;;;;;;12.76;51.10;98239.44;4481838;32;34138;-84
2023/01/09 06:10:38;;;;;;;;;;;;;;;12.65;51.10;98247.37;4482273;32;34001;-88
2023/01/09 06:13:05;;;;;;;;;;;;;;;12.21;52.72;98257.34;4482214;32;33881;-82
2023/01/09 06:15:32;;;;;;;;;;;;;;;13.08;50.54;98259.91;4482188;32;33866;-82
2023/01/09 06:18:00;;;;;;;;;;;;;;;12.85;50.69;98254.09;4482169;32;34823;-84
2023/01/09 06:20:27;;;;;;;;;;;;;;;13.43;49.13;98258.63;4482143;32;34094;-90
2023/01/09 06:22:54;;;;;;;;;;;;;;;12.67;50.86;98257.75;4472212;32;34836;-86
2023/01/09 06:25:22;;;;;;;;;;;;;;;12.76;50.89;98254.19;4481733;32;34436;-88
2023/01/09 06:27:50;;;;;;;;;;;;;;;13.62;48.89;98269.66;4467177;32;34002;-83
2023/01/09 06:30:18;;;;;;;;;;;;;;;13.89;48.01;98263.19;4482397;32;35250;-85
2023/01/09 06:32:47;;;;;;;;;;;;;;;13.90;47.76;98266.66;4467786;32;34873;-83
2023/01/09 06:35:19;;;;;;;;;;;;;;;13.09;49.63;98266.81;4467223;32;34110;-91
2023/01/09 06:37:49;;;;;;;;;;;;;;;13.10;49.88;98272.88;4481938;32;34080;-83
2023/01/09 06:40:19;;;;;;;;;;;;;;;13.32;49.36;98263.13;4481654;32;33888;-82
2023/01/09 06:42:48;;;;;;;;;;;;;;;12.58;51.42;98261.31;4481586;32;34276;-85
2023/01/09 06:45:16;;;;;;;;;;;;;;;12.01;52.91;98263.56;4478219;32;33104;-81
2023/01/09 06:47:43;;;;;;;;;;;;;;;11.97;53.10;98273.94;4469688;32;34913;-82
2023/01/09 06:50:11;;;;;;;;;;;;;;;11.25;55.09;98279.53;4469744;32;34601;-83
2023/01/09 06:52:38;;;;;;;;;;;;;;;11.29;55.01;98263.06;4483380;32;34325;-81
2023/01/09 06:55:06;;;;;;;;;;;;;;;10.91;56.39;98267.56;4470206;32;31894;-85
2023/01/09 06:57:33;;;;;;;;;;;;;;;11.69;54.07;98258.53;4470150;32;34026;-87
2023/01/09 07:00:01;;;;;;;;;;;;;;;10.93;56.20;98258.03;4484237;31;35172;-82
2023/01/09 07:02:28;;;;;;;;;;;;;;;10.95;56.65;98265.81;4484772;32;34360;-86
2023/01/09 07:04:55;;;;;;;;;;;;;;;11.79;53.83;98259.34;4481623;32;33479;-87
2023/01/09 07:07:24;;;;;;;;;;;;;;;11.07;55.12;98270.97;4484402;32;34150;-86
2023/01/09 07:09:51;;;;;;;;;;;;;;;11.11;56.06;98259.69;4484486;32;33793;-81
2023/01/09 07:12:18;;;;;;;;;;;;;;;12.16;53.08;98258.22;4484384;32;34589;-84
2023/01/09 07:14:45;;;;;;;;;;;;;;;11.68;54.45;98255.06;4484525;32;34176;-82
2023/01/09 07:17:13;;;;;;;;;;;;;;;10.81;56.58;98254.63;4484128;32;33993;-81
2023/01/09 07:19:40;;;;;;;;;;;;;;;12.00;53.77;98256.59;4470212;32;33996;-89
2023/01/09 07:22:07;;;;;;;;;;;;;;;11.88;53.43;98262.75;4469579;32;34369;-86
2023/01/09 07:24:34;;;;;;;;;;;;;;;11.92;53.03;98256.66;4470185;32;33475;-83
2023/01/09 07:27:02;;;;;;;;;;;;;;;11.37;54.93;98261.31;4483523;32;33723;-83
2023/01/09 07:29:29;;;;;;;;;;;;;;;12.34;52.62;98259.78;4483656;32;34572;-82
2023/01/09 07:31:56;;;;;;;;;;;;;;;11.82;53.82;98255.00;4483865;32;35114;-83
2023/01/09 07:34:24;;;;;;;;;;;;;;;12.20;52.95;98250.38;4484170;32;33354;-86
2023/01/09 07:36:51;;;;;;;;;;;;;;;11.33;55.07;98244.91;4483653;32;34837;-82
2023/01/09 07:39:18;;;;;;;;;;;;;;;12.16;53.07;98239.19;4483975;32;34463;-82
2023/01/09 07:41:45;;;;;;;;;;;;;;;11.80;53.68;98233.34;4484110;32;34813;-83
2023/01/09 07:44:13;;;;;;;;;;;;;;;12.39;52.40;98236.38;4469996;32;33677;-87
2023/01/09 07:46:41;;;;;;;;;;;;;;;12.34;52.16;98227.75;4484211;32;34787;-83
2023/01/09 07:49:08;;;;;;;;;;;;;;;12.31;52.04;98230.38;4483792;32;34227;-85
2023/01/09 07:51:38;;;;;;;;;;;;;;;12.00;53.34;98230.63;4483874;32;35440;-82
2023/01/09 07:54:05;;;;;;;;;;;;;;;11.99;52.81;98231.50;4484136;32;32978;-84
2023/01/09 07:56:32;;;;;;;;;;;;;;;12.26;51.83;98225.22;4484230;32;35147;-84
2023/01/09 07:58:59;;;;;;;;;;;;;;;12.51;51.26;98219.81;4484191;32;35177;-82
2023/01/09 08:01:27;;;;;;;;;;;;;;;12.28;51.69;98231.28;4484004;32;34013;-82
2023/01/09 08:03:54;;;;;;;;;;;;;;;11.17;54.66;98222.47;4484208;32;34180;-84
2023/01/09 08:06:23;;;;;;;;;;;;;;;11.70;53.40;98218.69;4483745;31;34916;-82
2023/01/09 08:08:50;;;;;;;;;;;;;;;11.22;55.11;98204.31;4469747;32;33984;-82
2023/01/09 08:11:17;;;;;;;;;;;;;;;11.75;54.02;98219.56;4483968;32;34981;-82
2023/01/09 08:13:44;;;;;;;;;;;;;;;12.37;52.45;98218.19;4484099;32;34173;-88
2023/01/09 08:16:12;;;;;;;;;;;;;;;12.55;51.76;98224.94;4484115;32;33870;-82
2023/01/09 08:18:39;;;;;;;;;;;;;;;12.79;51.19;98247.22;4484080;31;35640;-87
2023/01/09 08:21:06;;;;;;;;;;;;;;;12.93;51.06;98243.62;4483669;32;34876;-83
2023/01/09 08:23:33;;;;;;;;;;;;;;;10.74;56.95;98226.97;4483845;31;33222;-83
2023/01/09 08:26:01;;;;;;;;;;;;;;;12.34;52.85;98238.13;4483891;32;34305;-86
2023/01/09 08:28:28;;;;;;;;;;;;;;;12.77;51.64;98227.31;4483750;32;34088;-82
2023/01/09 08:30:55;;;;;;;;;;;;;;;12.36;52.82;98221.66;4484192;32;34390;-82
2023/01/09 08:33:23;;;;;;;;;;;;;;;12.58;52.30;98219.72;4483960;32;33060;-83
2023/01/09 08:35:50;;;;;;;;;;;;;;;12.99;51.53;98230.53;4483364;32;34998;-87
2023/01/09 08:38:17;;;;;;;;;;;;;;;11.09;56.43;98230.28;4483786;32;34200;-82
2023/01/09 08:40:45;;;;;;;;;;;;;;;11.25;56.72;98230.22;4483670;32;34018;-83
2023/01/09 08:48:46;;;;;;;;;;;;;;;11.82;55.49;98226.44;4483259;32;35238;-82
2023/01/09 08:51:14;;;;;;;;;;;;;;;11.07;57.86;98234.66;4483466;32;34313;-82
2023/01/09 08:53:41;;;;;;;;;;;;;;;11.05;57.92;98226.00;4483418;32;34354;-83
2023/01/09 08:56:09;;;;;;;;;;;;;;;11.53;56.61;98231.81;4483435;32;34705;-86
2023/01/09 08:58:36;;;;;;;;;;;;;;;10.46;59.53;98219.28;4469378;32;35354;-83
2023/01/09 09:01:04;;;;;;;;;;;;;;;10.75;59.28;98207.97;4483493;32;35020;-83
2023/01/09 09:03:31;;;;;;;;;;;;;;;10.53;59.43;98215.81;4483787;32;33538;-83
2023/01/09 09:05:59;;;;;;;;;;;;;;;10.49;59.35;98211.47;4467183;32;34751;-88
2023/01/09 09:08:26;;;;;;;;;;;;;;;10.36;60.04;98213.25;4466480;32;33884;-85
2023/01/09 09:10:53;;;;;;;;;;;;;;;10.19;60.41;98210.66;4467939;32;33835;-83
2023/01/09 09:13:21;;;;;;;;;;;;;;;10.59;58.82;98210.59;4468066;32;33507;-82
2023/01/09 09:15:48;;;;;;;;;;;;;;;9.88;61.52;98211.50;4467557;32;35073;-82
2023/01/09 09:18:15;;;;;;;;;;;;;;;10.10;60.22;98207.19;4472036;32;34385;-86
2023/01/09 09:20:42;;;;;;;;;;;;;;;10.04;61.13;98197.72;4483219;32;34001;-82
2023/01/09 09:23:12;;;;;;;;;;;;;;;10.53;59.77;98202.84;4483115;32;34157;-86
2023/01/09 09:25:39;;;;;;;;;;;;;;;10.74;58.93;98206.25;4483107;32;34263;-81
2023/01/09 09:28:07;;;;;;;;;;;;;;;9.43;62.77;98208.00;4483381;32;34459;-82
2023/01/09 09:30:34;;;;;;;;;;;;;;;10.17;60.60;98194.25;4483059;32;34223;-82
2023/01/09 09:33:02;;;;;;;;;;;;;;;9.22;62.79;98204.53;4483199;32;33465;-86
2023/01/09 09:35:32;;;;;;;;;;;;;;;10.03;61.02;98195.97;4468551;32;33940;-82
2023/01/09 09:38:00;;;;;;;;;;;;;;;9.75;61.92;98205.47;4468896;32;34144;-86
2023/01/09 09:40:37;;;;;;;;;;;;;;;9.93;61.43;98183.91;4483090;32;34610;-83
2023/01/09 09:46:11;;;;;;;;;;;;;;;9.98;61.50;98180.44;4483165;32;34175;-83
2023/01/09 09:48:42;;;;;;;;;;;;;;;9.70;62.37;98199.44;4482639;32;35321;-82
2023/01/09 09:51:18;;;;;;;;;;;;;;;9.86;61.91;98182.19;4468845;32;34235;-87
2023/01/09 09:54:03;;;;;;;;;;;;;;;10.54;59.79;98189.03;4483018;32;33404;-87
2023/01/09 09:56:31;;;;;;;;;;;;;;;10.33;60.44;98176.97;4468600;32;34981;-83
2023/01/09 09:59:00;;;;;;;;;;;;;;;10.47;59.84;98187.31;4468476;32;34498;-82
2023/01/09 10:01:40;;;;;;;;;;;;;;;11.32;57.52;98186.06;4468581;32;34312;-87
2023/01/09 10:04:10;;;;;;;;;;;;;;;10.34;59.57;98180.41;4468043;32;33215;-86
2023/01/09 10:06:42;;;;;;;;;;;;;;;10.07;61.43;98196.84;4468345;32;33879;-87
2023/01/09 10:09:09;;;;;;;;;;;;;;;9.90;61.59;98177.00;4468506;32;34506;-83
2023/01/09 10:11:55;;;;;;;;;;;;;;;10.53;59.83;98176.94;4482442;32;34200;-82
2023/01/09 10:14:23;;;;;;;;;;;;;;;11.21;57.74;98172.28;4482353;32;33173;-83
2023/01/09 10:16:51;;;;;;;;;;;;;;;10.51;59.74;98172.63;4468350;32;33822;-83
2023/01/09 10:19:24;;;;;;;;;;;;;;;10.78;58.92;98161.28;4484442;32;35168;-83
2023/01/09 10:21:52;;;;;;;;;;;;;;;10.98;58.29;98168.97;4470209;32;34239;-82
2023/01/09 10:24:31;;;;;;;;;;;;;;;10.51;59.95;98162.25;4483152;32;34183;-86
2023/01/09 10:27:01;;;;;;;;;;;;;;;10.00;61.22;98149.41;4469258;32;33793;-86
2023/01/09 10:29:47;;;;;;;;;;;;;;;11.33;57.86;98158.41;4469066;32;34340;-83
2023/01/09 10:32:33;;;;;;;;;;;;;;;11.24;57.49;98153.25;4468583;32;34532;-83
2023/01/09 10:35:00;;;;;;;;;;;;;;;10.06;61.06;98156.28;4468720;32;34238;-87
2023/01/09 10:37:28;;;;;;;;;;;;;;;10.61;59.62;98149.25;4468857;32;34483;-83
2023/01/09 10:40:01;;;;;;;;;;;;;;;10.56;59.58;98143.22;4468887;32;34163;-86
2023/01/09 10:42:34;;;;;;;;;;;;;;;9.82;62.41;98149.41;4454579;32;35065;-83
2023/01/09 10:45:21;;;;;;;;;;;;;;;10.39;59.85;98142.44;4468823;32;34195;-83
2023/01/09 10:47:49;;;;;;;;;;;;;;;10.22;61.04;98122.56;4458107;32;34224;-82
2023/01/09 10:50:20;;;;;;;;;;;;;;;10.50;59.81;98117.34;4454745;32;34522;-83
2023/01/09 10:52:48;;;;;;;;;;;;;;;10.70;59.46;98112.94;4454573;32;35056;-82
2023/01/09 10:55:22;;;;;;;;;;;;;;;11.33;57.64;98111.72;4468999;32;32828;-86
2023/01/09 10:57:52;;;;;;;;;;;;;;;11.17;57.68;98097.97;4468759;32;35599;-82
2023/01/09 11:00:20;;;;;;;;;;;;;;;10.17;60.76;98098.41;4454626;32;34076;-83
2023/01/09 11:02:53;;;;;;;;;;;;;;;10.73;59.26;98095.66;4468429;32;34390;-87
2023/01/09 11:05:22;;;;;;;;;;;;;;;9.91;62.19;98092.44;4480754;32;34160;-82
2023/01/09 11:07:50;;;;;;;;;;;;;;;10.55;60.26;98081.03;4484337;32;34861;-83
2023/01/09 11:10:17;;;;;;;;;;;;;;;10.06;61.90;98084.62;4470068;32;34457;-83
2023/01/09 11:12:46;;;;;;;;;;;;;;;10.02;61.88;98077.72;4484124;32;34266;-87
2023/01/09 11:15:18;;;;;;;;;;;;;;;10.33;61.11;98078.53;4484439;32;33401;-87
2023/01/09 11:17:46;;;;;;;;;;;;;;;9.99;61.62;98078.59;4468419;32;35018;-86
2023/01/09 11:20:17;;;;;;;;;;;;;;;11.24;58.36;98083.22;4467248;32;35235;-88
2023/01/09 11:22:46;;;;;;;;;;;;;;;10.26;60.94;98092.38;4470881;32;34560;-82
2023/01/09 11:25:14;;;;;;;;;;;;;;;10.22;61.44;98078.53;4484143;32;34025;-82
2023/01/09 11:27:41;;;;;;;;;;;;;;;10.07;62.18;98083.75;4483590;32;33965;-82
2023/01/09 11:30:09;;;;;;;;;;;;;;;10.23;61.72;98075.09;4483839;32;34546;-82
2023/01/09 11:32:36;;;;;;;;;;;;;;;10.47;60.91;98068.97;4484005;32;34183;-83
2023/01/09 11:35:04;;;;;;;;;;;;;;;11.30;58.42;98065.03;4469818;32;33200;-82
2023/01/09 11:37:31;;;;;;;;;;;;;;;9.48;64.02;98069.19;4469962;32;34315;-88
2023/01/09 11:39:58;;;;;;;;;;;;;;;10.26;61.84;98056.09;4484171;32;34318;-88
2023/01/09 11:43:00;;;;;;;;;;;;;;;10.85;60.14;98051.50;4469875;32;34644;-87
2023/01/09 11:45:21;;;;;;;;;;;;;;;10.34;61.88;98061.25;4482367;32;34211;-88
2023/01/09 11:47:48;;;;;;;;;;;;;;;10.57;61.02;98067.22;4454016;32;34008;-85
2023/01/09 11:50:19;;;;;;;;;;;;;;;10.66;60.56;98061.97;4468356;32;34884;-88
2023/01/09 11:53:10;;;;;;;;;;;;;;;10.62;60.67;98062.84;4468285;32;33882;-84
2023/01/09 11:55:37;;;;;;;;;;;;;;;10.66;60.83;98061.97;4460359;32;33153;-84
2023/01/09 11:58:13;;;;;;;;;;;;;;;11.17;59.28;98052.16;4468196;32;35236;-88
2023/01/09 12:01:01;;;;;;;;;;;;;;;10.07;63.20;98062.19;4475943;32;34395;-87
2023/01/09 12:03:38;;;;;;;;;;;;;;;11.33;59.28;98052.03;4451387;32;34619;-83
2023/01/09 12:06:31;;;;;;;;;;;;;;;11.52;58.34;98038.00;4469749;32;33019;-85
2023/01/09 12:09:03;;;;;;;;;;;;;;;10.37;61.95;98043.97;4481087;32;34143;-83
2023/01/09 12:11:33;;;;;;;;;;;;;;;10.33;62.14;98031.03;4469710;32;33740;-83
2023/01/09 12:14:00;;;;;;;;;;;;;;;10.48;61.88;98028.38;4483530;32;34322;-82
2023/01/09 12:16:30;;;;;;;;;;;;;;;10.08;63.08;98028.53;4483737;32;34360;-83
2023/01/09 12:19:16;;;;;;;;;;;;;;;10.63;61.53;98037.78;4483638;32;34265;-83
2023/01/09 12:21:51;;;;;;;;;;;;;;;10.85;60.47;98035.94;4483792;32;34294;-88
2023/01/09 12:24:22;;;;;;;;;;;;;;;11.43;58.87;98038.94;4469562;32;33592;-84
2023/01/09 12:26:55;;;;;;;;;;;;;;;10.93;60.44;98040.19;4483201;32;33133;-85
2023/01/09 12:29:25;;;;;;;;;;;;;;;10.51;62.18;98027.50;4483015;32;34046;-88
2023/01/09 12:32:08;;;;;;;;;;;;;;;9.58;65.16;98021.72;4469561;32;34228;-83
2023/01/09 12:34:45;;;;;;;;;;;;;;;10.47;62.45;98022.34;4483890;32;33731;-88
2023/01/09 12:37:28;;;;;;;;;;;;;;;10.93;61.00;98016.00;4483596;32;33331;-88
2023/01/09 12:40:04;;;;;;;;;;;;;;;11.12;60.45;98007.22;4468465;32;35013;-84
2023/01/09 12:42:47;;;;;;;;;;;;;;;10.22;63.15;98008.59;4483300;32;34410;-85
2023/01/09 12:45:21;;;;;;;;;;;;;;;10.80;61.25;98004.00;4483398;32;34683;-84
2023/01/09 12:47:49;;;;;;;;;;;;;;;10.13;63.01;98005.19;4469081;32;33276;-88
2023/01/09 12:50:22;;;;;;;;;;;;;;;10.21;63.53;98006.88;4453951;32;34317;-88
2023/01/09 12:53:29;;;;;;;;;;;;;;;10.15;63.51;98004.34;4453733;32;34393;-86
2023/01/09 12:55:59;;;;;;;;;;;;;;;9.79;65.22;98002.72;4418862;32;33818;-86
2023/01/09 12:58:35;;;;;;;;;;;;;;;11.66;59.45;97992.00;4418758;32;34050;-87
2023/01/09 13:01:03;;;;;;;;;;;;;;;12.28;57.54;97988.75;4446265;32;33395;-83
2023/01/09 13:03:33;;;;;;;;;;;;;;;12.10;57.57;97985.47;4453648;32;34001;-83
2023/01/09 13:06:00;;;;;;;;;;;;;;;11.71;58.64;97981.59;4453496;32;35682;-88
2023/01/09 13:08:31;;;;;;;;;;;;;;;12.55;56.36;97980.56;4453559;32;33269;-82
2023/01/09 13:11:18;;;;;;;;;;;;;;;12.76;55.84;97968.97;4467954;32;34040;-88